Marc Fuchs

Scout - VfL Wolfsburg
12 Nov 2028
Sunday
Process

Personality

Adaptability (15) Ambition (14) Controversy (14) Loyalty (9) Pressure (15) Professionalism (13) Sportsmanship (1) Temperament (20)

Profile

Coaching Style Democratic
License Continental Pro
Determination 13
Man Management 8
Motivating 7
Discipline 13
Job Satisfaction
100%
Fatigue
0%
Role Scout
Wage 98.1K p/w
Contract 14.03.2029

Performance

Behaviour Good
Training Effectiveness
58%
Player Development
70%
Injury Prevention
30%
Tactical Implementation
70%

Recent Events

Assessed a player now
Attended a recruitment meeting now
Recommended a transfer target now
Assessed a player now
Attended a recruitment meeting 7d ago
Recommended a transfer target 7d ago
Observed a match 7d ago
Observed a match 14d ago

Currently Monitoring

100
Player Club Status Ability Confidence Watched Last Observed Latest Vote
Celías Ingenthron Platense Active 115 / 127 40% 1 09.11.2028 -
Geovany Quenda Watford Active 149 / 156 40% 1 09.11.2028 -
Luis Otávio Orlando City Active 125 / 121 40% 1 07.11.2028 -
Joris Boguo Wolfsberger AC Active 104 / 110 40% 1 07.11.2028 -
Lisandro Piñero Banfield Active 127 / 126 40% 1 07.11.2028 -
Ibrahim Mbaye Queens Park Rangers Active 147 / 144 40% 3 06.11.2028 -
Tahiel Peralta Racing Club Active 108 / 116 40% 1 06.11.2028 -
Johannes Moser Sturm Graz Active 107 / 119 40% 1 06.11.2028 -
Matías Arias Vélez Active 109 / 123 40% 2 11.10.2028 -
Ayyoub Bouaddi Stoke City Active 148 / 155 40% 1 11.10.2028 -
Álvaro Montoro Botafogo Active 140 / 143 40% 1 08.10.2028 -
Olivier Mambwa Young Boys Active 110 / 125 40% 6 06.10.2028 -
Peyton Miller New England Revolution Active 107 / 119 40% 1 06.10.2028 -
Ryunosuke Sato Eibar Active 133 / 138 40% 1 04.10.2028 -
Lucca São Paulo Active 116 / 124 40% 1 04.10.2028 -
Sebastian Rodriguez Houston Dynamo Active 120 / 131 40% 1 04.10.2028 -
Matias Siltanen Malmo FF Active 131 / 133 40% 3 02.10.2028 -
Ramazan Bağdat Kairat Active 106 / 112 40% 1 02.10.2028 -
Facundo Krüger Temperley Active 117 / 113 40% 1 28.08.2028 -
Endrick Boca Juniors Active 164 / 162 40% 1 28.08.2028 -
Thomas Schlupp BA All Stars Active 114 / 109 40% 1 28.08.2028 -
Mathias Honsak Heidenheim Lost 135 / 134 76% 1 21.08.2028 Approve
Adam Hložek TSG Hoffenheim Lost 146 / 145 76% 1 14.08.2028 Approve
Trey Nyoni Rotherham United Active 142 / 151 40% 6 08.08.2028 -
Shea Lacey Crystal Palace Active 143 / 141 40% 2 08.08.2028 -
Ryan McAidoo Oldham Athletic Active 133 / 132 40% 2 08.08.2028 -
Arnaud Kalimuendo Nottingham Forest Active 150 / 153 40% 1 05.07.2028 -
Brandon Thomas-Asante Blackpool Active 125 / 128 40% 1 05.07.2028 -
Iliman N'Diaye Everton Active 161 / 162 40% 2 04.07.2028 -
Ez Abde Betis Active 157 / 156 40% 1 04.07.2028 -
William Osula Wrexham Active 143 / 136 40% 1 03.07.2028 -
Christopher Nkunku AC Milan Active 168 / 162 40% 1 03.07.2028 -
Isaac Romero Sevilla Lost 149 / 142 40% 1 26.06.2028 -
Yousef Salech Cardiff City Lost 138 / 131 40% 1 26.06.2028 -
Rayan Hamburger SV Active 140 / 153 40% 1 18.06.2028 -
Saïd El Mala Köln Active 148 / 153 76% 1 03.06.2028 Approve
Tyler Fletcher Rotherham United Active 113 / 116 40% 3 31.05.2028 -
Kerim Alajbegović Modena Active 138 / 137 40% 1 31.05.2028 -
Ben Broggio Mansfield Town Active 114 / 120 40% 1 31.05.2028 -
Daniel Banjaqui Benfica Active 119 / 126 40% 11 29.05.2028 -
Jorge Salinas Racing Santander Active 136 / 139 40% 8 29.05.2028 -
Christos Mouzakitis Hull City Active 132 / 141 40% 3 28.05.2028 -
Giovanni Leoni Lincoln City Active 142 / 141 40% 7 27.05.2028 -
Héctor Fort Real Sociedad Active 147 / 142 40% 4 25.05.2028 -
Jan Bürger Northampton Town Active 125 / 128 40% 2 25.05.2028 -
Josh Nichols Oldham Athletic Active 123 / 122 40% 7 23.05.2028 -
Givairo Read Feyenoord Active 152 / 156 40% 6 22.05.2028 -
Martim Cunha Porto Active 109 / 110 40% 6 22.05.2028 -
Marc Bernal Sevilla Active 151 / 156 40% 6 20.05.2028 -
Riquelme Thompson-Jones Accrington Stanley Active 107 / 115 40% 5 20.05.2028 -
Andrija Bulatović Chamois Niortais Active 129 / 132 40% 4 19.05.2028 -
Pau Cubarsí Real Sociedad Active 161 / 167 40% 11 18.05.2028 -
Bernardo Lima Porto Active 109 / 115 40% 4 18.05.2028 -
Ayden Heaven Portsmouth Active 147 / 150 40% 7 18.05.2028 -
Honest Ahanor Atalanta Active 137 / 145 40% 12 17.05.2028 -
Jorthy Mokio ADO Den Haag Active 130 / 137 40% 6 06.05.2028 -
Josh Acheampong Everton Active 137 / 145 40% 3 06.04.2028 -
Izan Merino Málaga Active 125 / 131 40% 2 05.04.2028 -
Prosper Peter Olympique Lyonnais Active 111 / 123 40% 1 29.06.2027 -
Finn Azaz Southampton Active 130 / 132 40% 1 18.05.2027 -
Georges Mikautadze Villarreal Active 152 / 151 40% 1 18.05.2027 -
Joe Gelhardt Hull City Active 138 / 137 40% 1 18.05.2027 -
Manu Koné AS Roma Active 167 / 164 40% 2 15.05.2027 -
Chemsdine Talbi Sunderland Active 147 / 141 40% 2 13.05.2027 -
Roberto Fernández Braga Active 150 / 142 40% 6 11.05.2027 -
Kevin Fulham Active 146 / 150 40% 2 09.05.2027 -
Aimar Osasuna Active 148 / 148 40% 1 09.05.2027 -
Pablo Torre Mallorca Active 140 / 146 40% 1 08.05.2027 -
Jonathan Dubasin Osasuna Active 138 / 141 40% 1 08.05.2027 -
David Larrubia Málaga Active 139 / 133 40% 1 02.05.2027 -
Savinho Tottenham Active 153 / 152 40% 1 01.05.2027 -
Omar El Hilali Espanyol Active 145 / 154 40% 1 01.05.2027 -
Andrés Martín Racing Santander Lost 144 / 132 40% 4 27.04.2027 -
Francisco Conceição Köln Active 151 / 156 40% 3 12.04.2027 -
Yeremy Pino Crystal Palace Active 156 / 151 40% 3 11.04.2027 -
Osame Sahraoui LOSC Lille Active 141 / 142 40% 1 06.04.2027 -
Pau Víctor Braga Active 135 / 140 40% 1 04.04.2027 -
Takefusa Kubo VfB Stuttgart Active 158 / 160 40% 2 31.03.2027 -
Geny Sporting CP Active 148 / 148 40% 2 31.03.2027 -
Mikel Jauregizar Athletic Bilbao Active 159 / 159 40% 3 21.03.2027 -
Alfon Sevilla Active 145 / 136 40% 1 10.03.2027 -
Petter Nosa Dahl Rapid Wien Active 124 / 120 40% 2 25.12.2026 -
Carlos Álvarez Club America Active 146 / 146 40% 1 25.12.2026 -
Oihan Sancet Athletic Bilbao Active 153 / 157 40% 3 20.12.2026 -
Christantus Uche Getafe Active 132 / 138 40% 1 20.12.2026 -
Sota Kitano Red Bull Salzburg Active 130 / 118 40% 2 16.12.2026 -
Yorbe Vertessen Red Bull Salzburg Active 127 / 127 40% 2 15.12.2026 -
Metinho Basel Active 126 / 127 40% 2 10.12.2026 -
João Pedro Chelsea Active 146 / 154 40% 1 10.12.2026 -
Moisés Caicedo Chelsea Active 161 / 165 40% 2 07.12.2026 -
Carlos Forbs Club Brugge Active 142 / 137 40% 1 27.11.2026 -
Oswin Appollis Orlando Pirates Active 125 / 120 40% 1 20.11.2026 -
Mattia Zanotti Young Boys Active 121 / 128 40% 1 09.11.2026 -
Matthias Seidl Rapid Wien Active 122 / 123 40% 1 31.10.2026 -
Amadou Onana Aston Villa Active 148 / 149 40% 1 26.10.2026 -
Michael Olise Bayern Munich Active 181 / 180 40% 1 23.10.2026 -
Maurits Kjærgaard Red Bull Salzburg Active 121 / 131 40% 1 20.10.2026 -
Felix Nmecha Borussia Dortmund Active 152 / 166 40% 1 04.08.2026 -
Frenkie de Jong Barcelona Active 156 / 167 40% 1 01.08.2026 -
Cody Gakpo Liverpool Active 153 / 161 40% 1 01.08.2026 -